sensor_id;sensor_type;location;lat;lon;timestamp;temperature;humidity
36498;DHT22;22513;51.222;6.480;2023-02-01T06:34:38;5.20;99.90
36498;DHT22;22513;51.222;6.480;2023-02-01T06:37:04;5.30;99.90
36498;DHT22;22513;51.222;6.480;2023-02-01T06:39:30;5.40;99.90
36498;DHT22;22513;51.222;6.480;2023-02-01T06:41:56;5.40;99.90
36498;DHT22;22513;51.222;6.480;2023-02-01T06:44:21;5.50;99.90
36498;DHT22;22513;51.222;6.480;2023-02-01T06:46:47;5.50;99.90
36498;DHT22;22513;51.222;6.480;2023-02-01T06:49:12;5.50;99.90
36498;DHT22;22513;51.222;6.480;2023-02-01T06:51:38;5.50;99.90
36498;DHT22;22513;51.222;6.480;2023-02-01T06:54:04;5.50;99.90
36498;DHT22;22513;51.222;6.480;2023-02-01T06:56:29;5.60;99.90
36498;DHT22;22513;51.222;6.480;2023-02-01T06:58:57;5.60;99.90
36498;DHT22;22513;51.222;6.480;2023-02-01T07:01:22;5.60;99.90
36498;DHT22;22513;51.222;6.480;2023-02-01T07:03:51;5.70;99.90
36498;DHT22;22513;51.222;6.480;2023-02-01T07:06:17;5.70;99.90
36498;DHT22;22513;51.222;6.480;2023-02-01T07:08:43;5.70;99.90
36498;DHT22;22513;51.222;6.480;2023-02-01T07:11:11;5.70;99.90
36498;DHT22;22513;51.222;6.480;2023-02-01T07:13:37;5.80;99.90
36498;DHT22;22513;51.222;6.480;2023-02-01T07:16:10;5.80;99.90
36498;DHT22;22513;51.222;6.480;2023-02-01T07:18:36;5.80;99.90
36498;DHT22;22513;51.222;6.480;2023-02-01T07:21:02;5.90;99.90
36498;DHT22;22513;51.222;6.480;2023-02-01T07:23:31;5.90;99.90
36498;DHT22;22513;51.222;6.480;2023-02-01T07:25:59;5.90;99.90
36498;DHT22;22513;51.222;6.480;2023-02-01T07:28:25;5.90;99.90
36498;DHT22;22513;51.222;6.480;2023-02-01T07:30:51;5.90;99.90
36498;DHT22;22513;51.222;6.480;2023-02-01T07:33:21;5.90;99.90
36498;DHT22;22513;51.222;6.480;2023-02-01T07:35:48;6.00;99.90
36498;DHT22;22513;51.222;6.480;2023-02-01T07:38:14;6.00;99.90
36498;DHT22;22513;51.222;6.480;2023-02-01T07:40:41;6.00;99.90
36498;DHT22;22513;51.222;6.480;2023-02-01T07:43:07;6.00;99.90
36498;DHT22;22513;51.222;6.480;2023-02-01T07:45:34;6.00;99.90
36498;DHT22;22513;51.222;6.480;2023-02-01T07:48:00;6.00;99.90
36498;DHT22;22513;51.222;6.480;2023-02-01T07:50:25;6.10;99.90
36498;DHT22;22513;51.222;6.480;2023-02-01T07:52:51;6.10;99.90
36498;DHT22;22513;51.222;6.480;2023-02-01T07:55:19;6.10;99.90
36498;DHT22;22513;51.222;6.480;2023-02-01T07:57:44;6.10;99.90
36498;DHT22;22513;51.222;6.480;2023-02-01T08:00:11;6.10;99.90
36498;DHT22;22513;51.222;6.480;2023-02-01T08:02:58;6.20;99.90
36498;DHT22;22513;51.222;6.480;2023-02-01T08:05:27;6.20;99.90
36498;DHT22;22513;51.222;6.480;2023-02-01T08:07:53;6.20;99.90
36498;DHT22;22513;51.222;6.480;2023-02-01T08:10:19;6.20;99.90
36498;DHT22;22513;51.222;6.480;2023-02-01T08:12:45;6.20;99.90
36498;DHT22;22513;51.222;6.480;2023-02-01T08:15:17;6.20;99.90
36498;DHT22;22513;51.222;6.480;2023-02-01T08:17:50;6.20;99.90
36498;DHT22;22513;51.222;6.480;2023-02-01T08:20:17;6.10;99.90
36498;DHT22;22513;51.222;6.480;2023-02-01T08:22:44;6.20;99.90
36498;DHT22;22513;51.222;6.480;2023-02-01T08:25:10;6.20;99.90
36498;DHT22;22513;51.222;6.480;2023-02-01T08:27:36;6.10;99.90
36498;DHT22;22513;51.222;6.480;2023-02-01T08:30:03;6.20;99.90
36498;DHT22;22513;51.222;6.480;2023-02-01T08:32:30;6.30;99.90
36498;DHT22;22513;51.222;6.480;2023-02-01T08:34:55;6.30;99.90
36498;DHT22;22513;51.222;6.480;2023-02-01T08:37:21;6.40;99.90
36498;DHT22;22513;51.222;6.480;2023-02-01T08:39:47;6.40;99.90
36498;DHT22;22513;51.222;6.480;2023-02-01T08:42:15;6.50;99.90
36498;DHT22;22513;51.222;6.480;2023-02-01T08:45:00;6.60;99.90
36498;DHT22;22513;51.222;6.480;2023-02-01T08:47:25;6.60;99.90
36498;DHT22;22513;51.222;6.480;2023-02-01T08:49:51;6.60;99.90
36498;DHT22;22513;51.222;6.480;2023-02-01T08:52:17;6.70;99.90
36498;DHT22;22513;51.222;6.480;2023-02-01T08:54:42;6.70;99.90
36498;DHT22;22513;51.222;6.480;2023-02-01T08:57:08;6.80;99.90
36498;DHT22;22513;51.222;6.480;2023-02-01T08:59:35;6.80;99.90
36498;DHT22;22513;51.222;6.480;2023-02-01T09:02:00;6.80;99.90
36498;DHT22;22513;51.222;6.480;2023-02-01T09:04:26;6.90;99.90
36498;DHT22;22513;51.222;6.480;2023-02-01T09:06:51;6.90;99.90
36498;DHT22;22513;51.222;6.480;2023-02-01T09:09:17;6.90;99.90
36498;DHT22;22513;51.222;6.480;2023-02-01T09:11:43;6.90;99.90
36498;DHT22;22513;51.222;6.480;2023-02-01T09:14:08;6.80;99.90
36498;DHT22;22513;51.222;6.480;2023-02-01T09:16:34;6.70;99.90
36498;DHT22;22513;51.222;6.480;2023-02-01T09:18:59;6.70;99.90
36498;DHT22;22513;51.222;6.480;2023-02-01T09:21:25;6.60;99.90
36498;DHT22;22513;51.222;6.480;2023-02-01T09:23:51;6.70;99.90
36498;DHT22;22513;51.222;6.480;2023-02-01T09:26:17;6.90;99.90
36498;DHT22;22513;51.222;6.480;2023-02-01T09:28:42;7.00;99.90
36498;DHT22;22513;51.222;6.480;2023-02-01T09:31:08;7.10;99.90
36498;DHT22;22513;51.222;6.480;2023-02-01T09:33:34;7.20;99.90
36498;DHT22;22513;51.222;6.480;2023-02-01T09:36:02;7.20;99.90
36498;DHT22;22513;51.222;6.480;2023-02-01T09:38:28;7.30;99.90
36498;DHT22;22513;51.222;6.480;2023-02-01T09:40:55;7.40;99.90
36498;DHT22;22513;51.222;6.480;2023-02-01T09:46:16;7.40;99.90
36498;DHT22;22513;51.222;6.480;2023-02-01T09:48:45;7.30;99.90
36498;DHT22;22513;51.222;6.480;2023-02-01T09:51:22;7.30;99.90
36498;DHT22;22513;51.222;6.480;2023-02-01T09:54:03;7.30;99.90
36498;DHT22;22513;51.222;6.480;2023-02-01T09:56:42;7.40;99.90
36498;DHT22;22513;51.222;6.480;2023-02-01T09:59:32;7.50;99.90
36498;DHT22;22513;51.222;6.480;2023-02-01T10:02:02;7.50;99.90
36498;DHT22;22513;51.222;6.480;2023-02-01T10:04:28;7.50;99.90
36498;DHT22;22513;51.222;6.480;2023-02-01T10:09:58;7.40;99.90
36498;DHT22;22513;51.222;6.480;2023-02-01T10:25:53;7.70;99.90
36498;DHT22;22513;51.222;6.480;2023-02-01T10:28:20;7.70;99.90
36498;DHT22;22513;51.222;6.480;2023-02-01T10:30:50;7.80;99.90
36498;DHT22;22513;51.222;6.480;2023-02-01T10:33:25;7.90;99.90
36498;DHT22;22513;51.222;6.480;2023-02-01T10:36:05;8.00;99.90
36498;DHT22;22513;51.222;6.480;2023-02-01T10:38:35;8.00;99.90
36498;DHT22;22513;51.222;6.480;2023-02-01T10:41:08;8.20;99.90
36498;DHT22;22513;51.222;6.480;2023-02-01T10:43:35;8.30;99.90
36498;DHT22;22513;51.222;6.480;2023-02-01T10:46:01;8.40;99.90
36498;DHT22;22513;51.222;6.480;2023-02-01T10:48:26;8.40;99.90
36498;DHT22;22513;51.222;6.480;2023-02-01T10:51:29;8.40;99.90
36498;DHT22;22513;51.222;6.480;2023-02-01T10:54:08;8.40;99.90
36498;DHT22;22513;51.222;6.480;2023-02-01T10:56:38;8.30;99.90
36498;DHT22;22513;51.222;6.480;2023-02-01T10:59:06;8.30;99.90
36498;DHT22;22513;51.222;6.480;2023-02-01T11:01:42;8.30;99.90
36498;DHT22;22513;51.222;6.480;2023-02-01T11:04:14;8.30;99.90
36498;DHT22;22513;51.222;6.480;2023-02-01T11:06:43;8.40;99.90
36498;DHT22;22513;51.222;6.480;2023-02-01T11:16:53;8.70;99.90
36498;DHT22;22513;51.222;6.480;2023-02-01T11:19:19;8.60;99.90
36498;DHT22;22513;51.222;6.480;2023-02-01T11:21:50;8.60;99.90
36498;DHT22;22513;51.222;6.480;2023-02-01T11:24:22;8.50;99.90
36498;DHT22;22513;51.222;6.480;2023-02-01T11:26:49;8.50;99.90
36498;DHT22;22513;51.222;6.480;2023-02-01T11:29:25;8.40;99.90
36498;DHT22;22513;51.222;6.480;2023-02-01T11:31:58;8.30;99.90
36498;DHT22;22513;51.222;6.480;2023-02-01T11:34:28;8.30;99.90
36498;DHT22;22513;51.222;6.480;2023-02-01T11:36:59;8.40;99.90
36498;DHT22;22513;51.222;6.480;2023-02-01T11:39:29;8.40;99.90
36498;DHT22;22513;51.222;6.480;2023-02-01T11:42:17;8.40;99.90
36498;DHT22;22513;51.222;6.480;2023-02-01T11:44:46;8.40;99.90
36498;DHT22;22513;51.222;6.480;2023-02-01T11:47:28;8.40;99.90
36498;DHT22;22513;51.222;6.480;2023-02-01T11:49:58;8.40;99.90
36498;DHT22;22513;51.222;6.480;2023-02-01T12:05:55;8.40;99.90
36498;DHT22;22513;51.222;6.480;2023-02-01T12:14:33;8.50;99.90
36498;DHT22;22513;51.222;6.480;2023-02-01T12:25:34;8.40;99.90
36498;DHT22;22513;51.222;6.480;2023-02-01T12:33:43;8.30;99.90
36498;DHT22;22513;51.222;6.480;2023-02-01T12:36:16;8.30;99.90
36498;DHT22;22513;51.222;6.480;2023-02-01T12:46:54;8.30;99.90
36498;DHT22;22513;51.222;6.480;2023-02-01T12:52:04;8.30;99.90
36498;DHT22;22513;51.222;6.480;2023-02-01T12:55:02;8.30;99.90
36498;DHT22;22513;51.222;6.480;2023-02-01T12:57:39;8.30;99.90
36498;DHT22;22513;51.222;6.480;2023-02-01T13:03:05;8.40;99.90
36498;DHT22;22513;51.222;6.480;2023-02-01T13:06:01;8.40;99.90
36498;DHT22;22513;51.222;6.480;2023-02-01T13:08:45;8.40;99.90
36498;DHT22;22513;51.222;6.480;2023-02-01T13:11:27;8.40;99.90
36498;DHT22;22513;51.222;6.480;2023-02-01T13:16:43;8.40;99.90
36498;DHT22;22513;51.222;6.480;2023-02-01T13:19:21;8.40;99.90
36498;DHT22;22513;51.222;6.480;2023-02-01T13:22:03;8.40;99.90
36498;DHT22;22513;51.222;6.480;2023-02-01T13:24:46;8.40;99.90
36498;DHT22;22513;51.222;6.480;2023-02-01T13:27:14;8.30;99.90
36498;DHT22;22513;51.222;6.480;2023-02-01T13:29:59;8.40;99.90
36498;DHT22;22513;51.222;6.480;2023-02-01T13:43:30;8.40;99.90
36498;DHT22;22513;51.222;6.480;2023-02-01T13:46:02;8.50;99.90
36498;DHT22;22513;51.222;6.480;2023-02-01T13:48:46;8.50;99.90
36498;DHT22;22513;51.222;6.480;2023-02-01T13:51:13;8.50;99.90
36498;DHT22;22513;51.222;6.480;2023-02-01T13:53:46;8.50;99.90
36498;DHT22;22513;51.222;6.480;2023-02-01T13:56:19;8.60;99.90
36498;DHT22;22513;51.222;6.480;2023-02-01T13:58:48;8.60;99.90
36498;DHT22;22513;51.222;6.480;2023-02-01T14:03:48;8.60;99.90
36498;DHT22;22513;51.222;6.480;2023-02-01T14:06:35;8.60;99.90
36498;DHT22;22513;51.222;6.480;2023-02-01T14:19:25;8.60;99.90
36498;DHT22;22513;51.222;6.480;2023-02-01T14:21:56;8.60;99.90
36498;DHT22;22513;51.222;6.480;2023-02-01T14:24:27;8.60;99.90
36498;DHT22;22513;51.222;6.480;2023-02-01T14:26:56;8.60;99.90
36498;DHT22;22513;51.222;6.480;2023-02-01T14:44:47;8.60;99.90
36498;DHT22;22513;51.222;6.480;2023-02-01T14:50:09;8.60;99.90
36498;DHT22;22513;51.222;6.480;2023-02-01T14:52:41;8.60;99.90
36498;DHT22;22513;51.222;6.480;2023-02-01T14:55:37;8.60;99.90
36498;DHT22;22513;51.222;6.480;2023-02-01T15:00:58;8.60;99.90
36498;DHT22;22513;51.222;6.480;2023-02-01T15:06:30;8.70;99.90
36498;DHT22;22513;51.222;6.480;2023-02-01T15:09:23;8.70;99.90
36498;DHT22;22513;51.222;6.480;2023-02-01T15:14:33;8.60;99.90
36498;DHT22;22513;51.222;6.480;2023-02-01T15:16:58;8.60;99.90
36498;DHT22;22513;51.222;6.480;2023-02-01T15:19:27;8.60;99.90
36498;DHT22;22513;51.222;6.480;2023-02-01T15:21:55;8.60;99.90
36498;DHT22;22513;51.222;6.480;2023-02-01T15:26:49;8.50;99.90
36498;DHT22;22513;51.222;6.480;2023-02-01T15:29:15;8.50;99.90
36498;DHT22;22513;51.222;6.480;2023-02-01T15:31:47;8.50;99.90
36498;DHT22;22513;51.222;6.480;2023-02-01T15:34:14;8.50;99.90
36498;DHT22;22513;51.222;6.480;2023-02-01T15:36:41;8.50;99.90
36498;DHT22;22513;51.222;6.480;2023-02-01T15:39:22;8.50;99.90
36498;DHT22;22513;51.222;6.480;2023-02-01T15:41:56;8.50;99.90
36498;DHT22;22513;51.222;6.480;2023-02-01T15:44:34;8.50;99.90
36498;DHT22;22513;51.222;6.480;2023-02-01T15:47:15;8.40;99.90
36498;DHT22;22513;51.222;6.480;2023-02-01T15:49:43;8.40;99.90
36498;DHT22;22513;51.222;6.480;2023-02-01T15:52:39;8.40;99.90
36498;DHT22;22513;51.222;6.480;2023-02-01T15:55:25;8.40;99.90
36498;DHT22;22513;51.222;6.480;2023-02-01T15:57:55;8.40;99.90
36498;DHT22;22513;51.222;6.480;2023-02-01T16:02:56;8.40;99.90
36498;DHT22;22513;51.222;6.480;2023-02-01T16:05:42;8.40;99.90
36498;DHT22;22513;51.222;6.480;2023-02-01T16:08:23;8.40;99.90
36498;DHT22;22513;51.222;6.480;2023-02-01T16:10:52;8.30;99.90
36498;DHT22;22513;51.222;6.480;2023-02-01T16:13:20;8.30;99.90
36498;DHT22;22513;51.222;6.480;2023-02-01T16:15:47;8.30;99.90
36498;DHT22;22513;51.222;6.480;2023-02-01T16:18:14;8.30;99.90
36498;DHT22;22513;51.222;6.480;2023-02-01T16:20:41;8.30;99.90
36498;DHT22;22513;51.222;6.480;2023-02-01T16:23:07;8.30;99.90
36498;DHT22;22513;51.222;6.480;2023-02-01T16:25:33;8.30;99.90
36498;DHT22;22513;51.222;6.480;2023-02-01T16:27:59;8.30;99.90
36498;DHT22;22513;51.222;6.480;2023-02-01T16:30:25;8.30;99.90
36498;DHT22;22513;51.222;6.480;2023-02-01T16:33:00;8.20;99.90
36498;DHT22;22513;51.222;6.480;2023-02-01T16:35:31;8.20;99.90
36498;DHT22;22513;51.222;6.480;2023-02-01T16:38:02;8.30;99.90
36498;DHT22;22513;51.222;6.480;2023-02-01T16:40:27;8.20;99.90
36498;DHT22;22513;51.222;6.480;2023-02-01T16:42:53;8.10;99.90
36498;DHT22;22513;51.222;6.480;2023-02-01T16:45:22;8.10;99.90
36498;DHT22;22513;51.222;6.480;2023-02-01T16:47:50;8.10;99.90
36498;DHT22;22513;51.222;6.480;2023-02-01T16:50:20;8.10;99.90
36498;DHT22;22513;51.222;6.480;2023-02-01T16:52:46;8.00;99.90
36498;DHT22;22513;51.222;6.480;2023-02-01T16:55:19;8.00;99.90
36498;DHT22;22513;51.222;6.480;2023-02-01T16:57:46;8.00;99.90
36498;DHT22;22513;51.222;6.480;2023-02-01T17:00:13;8.10;99.90
36498;DHT22;22513;51.222;6.480;2023-02-01T17:02:40;8.00;99.90
36498;DHT22;22513;51.222;6.480;2023-02-01T17:05:08;8.00;99.90
36498;DHT22;22513;51.222;6.480;2023-02-01T17:07:34;8.10;99.90
36498;DHT22;22513;51.222;6.480;2023-02-01T17:10:01;8.10;99.90
36498;DHT22;22513;51.222;6.480;2023-02-01T17:12:30;8.10;99.90
36498;DHT22;22513;51.222;6.480;2023-02-01T17:14:56;8.10;99.90
36498;DHT22;22513;51.222;6.480;2023-02-01T17:17:23;8.10;99.90
36498;DHT22;22513;51.222;6.480;2023-02-01T17:19:51;8.10;99.90
36498;DHT22;22513;51.222;6.480;2023-02-01T17:22:21;8.10;99.90
36498;DHT22;22513;51.222;6.480;2023-02-01T17:24:47;8.00;99.90
36498;DHT22;22513;51.222;6.480;2023-02-01T17:27:14;8.00;99.90
36498;DHT22;22513;51.222;6.480;2023-02-01T17:29:40;8.10;99.90
36498;DHT22;22513;51.222;6.480;2023-02-01T17:32:22;8.00;99.90
36498;DHT22;22513;51.222;6.480;2023-02-01T17:34:48;8.00;99.90
36498;DHT22;22513;51.222;6.480;2023-02-01T17:37:33;8.00;99.90
36498;DHT22;22513;51.222;6.480;2023-02-01T17:40:00;8.00;99.90
36498;DHT22;22513;51.222;6.480;2023-02-01T17:42:28;8.00;99.90
36498;DHT22;22513;51.222;6.480;2023-02-01T17:44:57;8.00;99.90
36498;DHT22;22513;51.222;6.480;2023-02-01T17:47:23;8.10;99.90
36498;DHT22;22513;51.222;6.480;2023-02-01T17:49:49;8.00;99.90
36498;DHT22;22513;51.222;6.480;2023-02-01T17:52:22;8.00;99.90
36498;DHT22;22513;51.222;6.480;2023-02-01T17:54:48;8.00;99.90
36498;DHT22;22513;51.222;6.480;2023-02-01T17:57:16;8.00;99.90
36498;DHT22;22513;51.222;6.480;2023-02-01T17:59:42;8.00;99.90
36498;DHT22;22513;51.222;6.480;2023-02-01T18:02:20;7.90;99.90
36498;DHT22;22513;51.222;6.480;2023-02-01T18:04:49;8.00;99.90
36498;DHT22;22513;51.222;6.480;2023-02-01T18:07:15;8.00;99.90
36498;DHT22;22513;51.222;6.480;2023-02-01T18:09:41;8.00;99.90
36498;DHT22;22513;51.222;6.480;2023-02-01T18:12:18;8.00;99.90
36498;DHT22;22513;51.222;6.480;2023-02-01T18:14:44;7.90;99.90
36498;DHT22;22513;51.222;6.480;2023-02-01T18:17:09;8.00;99.90
36498;DHT22;22513;51.222;6.480;2023-02-01T18:19:37;8.00;99.90
36498;DHT22;22513;51.222;6.480;2023-02-01T18:22:02;7.90;99.90
36498;DHT22;22513;51.222;6.480;2023-02-01T18:24:29;7.90;99.90
36498;DHT22;22513;51.222;6.480;2023-02-01T18:26:58;7.90;99.90
36498;DHT22;22513;51.222;6.480;2023-02-01T18:29:24;7.80;99.90
36498;DHT22;22513;51.222;6.480;2023-02-01T18:31:49;7.80;99.90
36498;DHT22;22513;51.222;6.480;2023-02-01T18:34:15;7.70;99.90
36498;DHT22;22513;51.222;6.480;2023-02-01T18:36:49;7.70;99.90
36498;DHT22;22513;51.222;6.480;2023-02-01T18:39:16;7.70;99.90
36498;DHT22;22513;51.222;6.480;2023-02-01T18:41:43;7.70;99.90
36498;DHT22;22513;51.222;6.480;2023-02-01T18:44:14;7.60;99.90
36498;DHT22;22513;51.222;6.480;2023-02-01T18:46:41;7.60;99.90
36498;DHT22;22513;51.222;6.480;2023-02-01T18:49:06;7.60;99.90
36498;DHT22;22513;51.222;6.480;2023-02-01T18:51:33;7.60;99.90
36498;DHT22;22513;51.222;6.480;2023-02-01T18:53:59;7.60;99.90
36498;DHT22;22513;51.222;6.480;2023-02-01T18:56:25;7.60;99.90
36498;DHT22;22513;51.222;6.480;2023-02-01T18:58:50;7.60;99.90
36498;DHT22;22513;51.222;6.480;2023-02-01T19:01:18;7.70;99.90
36498;DHT22;22513;51.222;6.480;2023-02-01T19:03:46;7.60;99.90
36498;DHT22;22513;51.222;6.480;2023-02-01T19:06:11;7.70;99.90
36498;DHT22;22513;51.222;6.480;2023-02-01T19:08:37;7.70;99.90
36498;DHT22;22513;51.222;6.480;2023-02-01T19:11:05;7.70;99.90
36498;DHT22;22513;51.222;6.480;2023-02-01T19:13:30;7.70;99.90
36498;DHT22;22513;51.222;6.480;2023-02-01T19:15:56;7.70;99.90
36498;DHT22;22513;51.222;6.480;2023-02-01T19:18:22;7.70;99.90
36498;DHT22;22513;51.222;6.480;2023-02-01T19:20:48;7.70;99.90
36498;DHT22;22513;51.222;6.480;2023-02-01T19:23:19;7.70;99.90
36498;DHT22;22513;51.222;6.480;2023-02-01T19:25:46;7.70;99.90
36498;DHT22;22513;51.222;6.480;2023-02-01T19:28:14;7.70;99.90
36498;DHT22;22513;51.222;6.480;2023-02-01T19:30:40;7.70;99.90
36498;DHT22;22513;51.222;6.480;2023-02-01T19:33:06;7.70;99.90
36498;DHT22;22513;51.222;6.480;2023-02-01T19:35:32;7.70;99.90
36498;DHT22;22513;51.222;6.480;2023-02-01T19:37:57;7.70;99.90
36498;DHT22;22513;51.222;6.480;2023-02-01T19:40:23;7.80;99.90
36498;DHT22;22513;51.222;6.480;2023-02-01T19:42:50;7.80;99.90
36498;DHT22;22513;51.222;6.480;2023-02-01T19:45:17;7.80;99.90
36498;DHT22;22513;51.222;6.480;2023-02-01T19:47:43;7.90;99.90
36498;DHT22;22513;51.222;6.480;2023-02-01T19:50:14;7.90;99.90
36498;DHT22;22513;51.222;6.480;2023-02-01T19:52:40;7.80;99.90
36498;DHT22;22513;51.222;6.480;2023-02-01T19:55:06;7.90;99.90
36498;DHT22;22513;51.222;6.480;2023-02-01T19:57:32;7.90;99.90
36498;DHT22;22513;51.222;6.480;2023-02-01T19:59:57;7.90;99.90
36498;DHT22;22513;51.222;6.480;2023-02-01T20:02:23;7.90;99.90
36498;DHT22;22513;51.222;6.480;2023-02-01T20:04:50;7.90;99.90
36498;DHT22;22513;51.222;6.480;2023-02-01T20:07:16;7.90;99.90
36498;DHT22;22513;51.222;6.480;2023-02-01T20:09:42;7.90;99.90
36498;DHT22;22513;51.222;6.480;2023-02-01T20:12:09;8.00;99.90
36498;DHT22;22513;51.222;6.480;2023-02-01T20:14:36;8.00;99.90
36498;DHT22;22513;51.222;6.480;2023-02-01T20:17:01;8.00;99.90
36498;DHT22;22513;51.222;6.480;2023-02-01T20:19:27;8.10;99.90
36498;DHT22;22513;51.222;6.480;2023-02-01T20:21:55;8.00;99.90
36498;DHT22;22513;51.222;6.480;2023-02-01T20:24:20;8.00;99.90
36498;DHT22;22513;51.222;6.480;2023-02-01T20:26:46;8.00;99.90
36498;DHT22;22513;51.222;6.480;2023-02-01T20:29:14;8.00;99.90
36498;DHT22;22513;51.222;6.480;2023-02-01T20:31:41;8.00;99.90
36498;DHT22;22513;51.222;6.480;2023-02-01T20:34:09;8.00;99.90
36498;DHT22;22513;51.222;6.480;2023-02-01T20:36:35;8.10;99.90
36498;DHT22;22513;51.222;6.480;2023-02-01T20:39:00;8.10;99.90
36498;DHT22;22513;51.222;6.480;2023-02-01T20:41:26;8.10;99.90
36498;DHT22;22513;51.222;6.480;2023-02-01T20:43:52;8.10;99.90
36498;DHT22;22513;51.222;6.480;2023-02-01T20:46:19;8.10;99.90
36498;DHT22;22513;51.222;6.480;2023-02-01T20:48:46;8.10;99.90
36498;DHT22;22513;51.222;6.480;2023-02-01T20:51:14;8.10;99.90
36498;DHT22;22513;51.222;6.480;2023-02-01T20:53:40;8.10;99.90
36498;DHT22;22513;51.222;6.480;2023-02-01T20:56:07;8.10;99.90
36498;DHT22;22513;51.222;6.480;2023-02-01T20:58:33;8.10;99.90
36498;DHT22;22513;51.222;6.480;2023-02-01T21:00:58;8.10;99.90
36498;DHT22;22513;51.222;6.480;2023-02-01T21:03:24;8.10;99.90
36498;DHT22;22513;51.222;6.480;2023-02-01T21:05:52;8.10;99.90
36498;DHT22;22513;51.222;6.480;2023-02-01T21:08:18;8.10;99.90
36498;DHT22;22513;51.222;6.480;2023-02-01T21:11:14;8.10;99.90
36498;DHT22;22513;51.222;6.480;2023-02-01T21:13:42;8.10;99.90
36498;DHT22;22513;51.222;6.480;2023-02-01T21:16:16;8.00;99.90
36498;DHT22;22513;51.222;6.480;2023-02-01T21:18:42;8.00;99.90
36498;DHT22;22513;51.222;6.480;2023-02-01T21:21:11;8.00;99.90
36498;DHT22;22513;51.222;6.480;2023-02-01T21:23:38;8.00;99.90
36498;DHT22;22513;51.222;6.480;2023-02-01T21:26:20;8.00;99.90
36498;DHT22;22513;51.222;6.480;2023-02-01T21:28:46;8.00;99.90
36498;DHT22;22513;51.222;6.480;2023-02-01T21:31:13;8.00;99.90
36498;DHT22;22513;51.222;6.480;2023-02-01T21:33:41;8.00;99.90
36498;DHT22;22513;51.222;6.480;2023-02-01T21:36:07;7.90;99.90
36498;DHT22;22513;51.222;6.480;2023-02-01T21:38:33;8.00;99.90
36498;DHT22;22513;51.222;6.480;2023-02-01T21:40:59;8.00;99.90
36498;DHT22;22513;51.222;6.480;2023-02-01T21:43:43;8.00;99.90
36498;DHT22;22513;51.222;6.480;2023-02-01T21:46:09;8.00;99.90
36498;DHT22;22513;51.222;6.480;2023-02-01T21:48:34;8.00;99.90
36498;DHT22;22513;51.222;6.480;2023-02-01T21:51:02;8.00;99.90
36498;DHT22;22513;51.222;6.480;2023-02-01T21:53:28;7.90;99.90
36498;DHT22;22513;51.222;6.480;2023-02-01T21:55:54;7.90;99.90
36498;DHT22;22513;51.222;6.480;2023-02-01T21:58:19;7.90;99.90
36498;DHT22;22513;51.222;6.480;2023-02-01T22:00:45;7.90;99.90
36498;DHT22;22513;51.222;6.480;2023-02-01T22:03:12;7.90;99.90
36498;DHT22;22513;51.222;6.480;2023-02-01T22:05:38;7.90;99.90
36498;DHT22;22513;51.222;6.480;2023-02-01T22:08:04;7.90;99.90
36498;DHT22;22513;51.222;6.480;2023-02-01T22:10:29;7.90;99.90
36498;DHT22;22513;51.222;6.480;2023-02-01T22:12:55;7.90;99.90
36498;DHT22;22513;51.222;6.480;2023-02-01T22:15:20;7.90;99.90
36498;DHT22;22513;51.222;6.480;2023-02-01T22:17:46;7.90;99.90
36498;DHT22;22513;51.222;6.480;2023-02-01T22:20:12;7.90;99.90
36498;DHT22;22513;51.222;6.480;2023-02-01T22:22:37;7.90;99.90
36498;DHT22;22513;51.222;6.480;2023-02-01T22:25:03;7.90;99.90
36498;DHT22;22513;51.222;6.480;2023-02-01T22:27:29;7.90;99.90
36498;DHT22;22513;51.222;6.480;2023-02-01T22:29:54;7.90;99.90
36498;DHT22;22513;51.222;6.480;2023-02-01T22:32:21;7.90;99.90
36498;DHT22;22513;51.222;6.480;2023-02-01T22:34:47;7.90;99.90
36498;DHT22;22513;51.222;6.480;2023-02-01T22:37:12;7.90;99.90
36498;DHT22;22513;51.222;6.480;2023-02-01T22:39:38;7.90;99.90
36498;DHT22;22513;51.222;6.480;2023-02-01T22:42:04;7.90;99.90
36498;DHT22;22513;51.222;6.480;2023-02-01T22:44:29;7.90;99.90
36498;DHT22;22513;51.222;6.480;2023-02-01T22:46:55;7.90;99.90
36498;DHT22;22513;51.222;6.480;2023-02-01T22:49:21;7.80;99.90
36498;DHT22;22513;51.222;6.480;2023-02-01T22:51:46;7.80;99.90
36498;DHT22;22513;51.222;6.480;2023-02-01T22:54:17;7.80;99.90
36498;DHT22;22513;51.222;6.480;2023-02-01T22:56:45;7.80;99.90
36498;DHT22;22513;51.222;6.480;2023-02-01T22:59:12;7.70;99.90
36498;DHT22;22513;51.222;6.480;2023-02-01T23:01:41;7.70;99.90
36498;DHT22;22513;51.222;6.480;2023-02-01T23:04:10;7.70;99.90
36498;DHT22;22513;51.222;6.480;2023-02-01T23:06:37;7.70;99.90
36498;DHT22;22513;51.222;6.480;2023-02-01T23:09:06;7.70;99.90
36498;DHT22;22513;51.222;6.480;2023-02-01T23:11:36;7.60;99.90
36498;DHT22;22513;51.222;6.480;2023-02-01T23:14:03;7.60;99.90
36498;DHT22;22513;51.222;6.480;2023-02-01T23:16:28;7.60;99.90
36498;DHT22;22513;51.222;6.480;2023-02-01T23:18:54;7.60;99.90
36498;DHT22;22513;51.222;6.480;2023-02-01T23:21:22;7.60;99.90
36498;DHT22;22513;51.222;6.480;2023-02-01T23:23:50;7.50;99.90
36498;DHT22;22513;51.222;6.480;2023-02-01T23:26:17;7.50;99.90
36498;DHT22;22513;51.222;6.480;2023-02-01T23:28:43;7.40;99.90
36498;DHT22;22513;51.222;6.480;2023-02-01T23:31:11;7.40;99.90
36498;DHT22;22513;51.222;6.480;2023-02-01T23:33:37;7.40;99.90
36498;DHT22;22513;51.222;6.480;2023-02-01T23:36:05;7.40;99.90
36498;DHT22;22513;51.222;6.480;2023-02-01T23:38:32;7.40;99.90
36498;DHT22;22513;51.222;6.480;2023-02-01T23:41:00;7.40;99.90
36498;DHT22;22513;51.222;6.480;2023-02-01T23:43:27;7.40;99.90
36498;DHT22;22513;51.222;6.480;2023-02-01T23:46:12;7.40;99.90
36498;DHT22;22513;51.222;6.480;2023-02-01T23:48:43;7.40;99.90
36498;DHT22;22513;51.222;6.480;2023-02-01T23:51:09;7.40;99.90
36498;DHT22;22513;51.222;6.480;2023-02-01T23:53:35;7.40;99.90
36498;DHT22;22513;51.222;6.480;2023-02-01T23:56:00;7.40;99.90
36498;DHT22;22513;51.222;6.480;2023-02-01T23:58:26;7.40;99.90
